createdAt,value
2023-01-17T00:00:58.516Z,99.69
2023-01-17T00:06:32.641Z,99.58
2023-01-17T00:11:35.101Z,99.60
2023-01-17T00:16:37.841Z,99.82
2023-01-17T00:22:06.304Z,99.85
2023-01-17T00:27:14.764Z,100.00
2023-01-17T00:32:17.791Z,100.00
2023-01-17T00:37:22.373Z,100.00
2023-01-17T00:42:24.894Z,100.00
2023-01-17T00:47:45.649Z,100.00
2023-01-17T00:53:07.032Z,100.00
2023-01-17T00:58:29.137Z,100.00
2023-01-17T01:03:50.068Z,100.00
2023-01-17T01:09:10.928Z,100.00
2023-01-17T01:14:34.806Z,100.00
2023-01-17T01:19:56.300Z,100.00
2023-01-17T01:25:23.788Z,100.00
2023-01-17T01:30:45.424Z,100.00
2023-01-17T01:35:55.407Z,100.00
2023-01-17T01:40:57.902Z,100.00
2023-01-17T01:46:00.204Z,100.00
2023-01-17T01:51:09.904Z,100.00
2023-01-17T01:56:15.607Z,100.00
2023-01-17T02:01:19.508Z,100.00
2023-01-17T02:06:34.140Z,100.00
2023-01-17T02:11:39.367Z,100.00
2023-01-17T02:17:03.919Z,100.00
2023-01-17T02:22:48.524Z,100.00
2023-01-17T02:27:54.641Z,100.00
2023-01-17T02:33:17.729Z,100.00
2023-01-17T02:38:34.000Z,99.97
2023-01-17T02:43:37.663Z,99.99
2023-01-17T02:48:40.162Z,99.91
2023-01-17T02:53:48.995Z,99.76
2023-01-17T02:59:14.172Z,99.75
2023-01-17T03:04:42.130Z,99.67
2023-01-17T03:09:47.088Z,99.85
2023-01-17T03:14:53.608Z,99.93
2023-01-17T03:19:56.720Z,99.88
2023-01-17T03:25:16.366Z,99.94
2023-01-17T03:30:23.121Z,100.00
2023-01-17T03:35:28.413Z,99.98
2023-01-17T03:40:37.847Z,100.00
2023-01-17T03:45:40.227Z,100.00
2023-01-17T03:50:43.685Z,99.99
2023-01-17T03:55:46.609Z,100.00
2023-01-17T04:00:49.806Z,99.98
2023-01-17T04:05:53.301Z,99.95
2023-01-17T04:10:55.316Z,100.00
2023-01-17T04:15:59.977Z,99.95
2023-01-17T04:21:02.612Z,99.95
2023-01-17T04:26:05.450Z,99.98
2023-01-17T04:31:07.874Z,99.91
2023-01-17T04:36:10.488Z,99.89
2023-01-17T04:41:12.556Z,99.83
2023-01-17T04:46:15.128Z,100.00
2023-01-17T04:51:18.228Z,100.00
2023-01-17T04:56:20.228Z,100.00
2023-01-17T05:01:22.708Z,100.00
2023-01-17T05:06:25.655Z,100.00
2023-01-17T05:11:30.446Z,100.00
2023-01-17T05:16:32.784Z,100.00
2023-01-17T05:21:35.298Z,100.00
2023-01-17T05:26:38.204Z,100.00
2023-01-17T05:31:40.725Z,100.00
2023-01-17T05:36:42.829Z,100.00
2023-01-17T05:41:45.758Z,100.00
2023-01-17T05:46:49.783Z,100.00
2023-01-17T05:51:54.831Z,100.00
2023-01-17T05:56:57.070Z,100.00
2023-01-17T06:01:59.045Z,100.00
2023-01-17T06:07:03.356Z,100.00
2023-01-17T06:12:06.342Z,100.00
2023-01-17T06:17:08.264Z,100.00
2023-01-17T06:22:10.399Z,100.00
2023-01-17T06:27:15.359Z,100.00
2023-01-17T06:32:17.386Z,100.00
2023-01-17T06:37:19.790Z,100.00
2023-01-17T06:42:22.245Z,100.00
2023-01-17T06:47:24.436Z,100.00
2023-01-17T06:52:30.256Z,100.00
2023-01-17T06:57:33.093Z,100.00
2023-01-17T07:02:37.110Z,100.00
2023-01-17T07:07:39.220Z,100.00
2023-01-17T07:12:46.962Z,100.00
2023-01-17T07:17:49.487Z,100.00
2023-01-17T07:22:52.584Z,100.00
2023-01-17T07:27:57.600Z,100.00
2023-01-17T07:33:00.392Z,100.00
2023-01-17T07:38:03.741Z,100.00
2023-01-17T07:43:17.308Z,100.00
2023-01-17T07:48:21.996Z,100.00
2023-01-17T07:53:30.779Z,100.00
2023-01-17T07:58:34.882Z,100.00
2023-01-17T08:03:40.666Z,100.00
2023-01-17T08:08:43.260Z,100.00
2023-01-17T08:13:48.396Z,100.00
2023-01-17T08:18:56.464Z,100.00
2023-01-17T08:24:15.411Z,100.00
2023-01-17T08:29:19.244Z,99.91
2023-01-17T08:34:23.843Z,99.68
2023-01-17T08:39:31.633Z,99.40
2023-01-17T08:44:34.704Z,99.39
2023-01-17T08:49:44.943Z,98.96
2023-01-17T08:54:53.865Z,98.55
2023-01-17T09:00:14.765Z,98.57
2023-01-17T09:05:17.029Z,98.39
2023-01-17T09:10:19.698Z,98.25
2023-01-17T09:15:26.690Z,97.89
2023-01-17T09:20:30.890Z,97.54
2023-01-17T09:25:33.077Z,97.02
2023-01-17T09:30:38.035Z,96.81
2023-01-17T09:35:40.724Z,96.35
2023-01-17T09:40:47.396Z,95.50
2023-01-17T09:45:50.252Z,95.67
2023-01-17T09:51:04.492Z,95.53
2023-01-17T09:56:31.423Z,95.36
2023-01-17T10:02:31.839Z,94.95
2023-01-17T10:08:04.774Z,94.29
2023-01-17T10:13:27.748Z,94.35
2023-01-17T10:18:55.615Z,93.55
2023-01-17T10:24:28.455Z,93.90
2023-01-17T10:29:36.987Z,89.86
2023-01-17T10:34:58.249Z,90.36
2023-01-17T10:40:38.471Z,89.92
2023-01-17T10:45:56.372Z,88.95
2023-01-17T10:51:43.092Z,88.74
2023-01-17T10:56:53.268Z,89.08
2023-01-17T11:01:55.973Z,88.40
2023-01-17T11:07:30.745Z,87.56
2023-01-17T11:12:45.517Z,86.30
2023-01-17T11:17:53.388Z,87.06
2023-01-17T11:23:05.948Z,84.72
2023-01-17T11:28:20.252Z,84.42
2023-01-17T11:34:13.970Z,83.81
2023-01-17T11:39:27.889Z,84.06
2023-01-17T11:44:35.095Z,84.39
2023-01-17T11:49:38.982Z,82.59
2023-01-17T11:54:47.962Z,82.20
2023-01-17T12:00:38.297Z,81.97
2023-01-17T12:05:43.193Z,82.53
2023-01-17T12:11:17.098Z,81.56
2023-01-17T12:16:53.538Z,78.57
2023-01-17T12:22:04.138Z,79.79
2023-01-17T12:27:34.604Z,79.90
2023-01-17T12:32:59.057Z,79.49
2023-01-17T12:38:09.166Z,78.72
2023-01-17T12:43:23.033Z,78.42
2023-01-17T12:48:30.882Z,77.37
2023-01-17T12:53:59.927Z,77.66
2023-01-17T12:59:27.964Z,78.75
2023-01-17T13:04:46.914Z,78.97
2023-01-17T13:10:26.957Z,78.63
2023-01-17T13:15:39.249Z,79.20
2023-01-17T13:21:05.282Z,78.79
2023-01-17T13:26:20.838Z,78.59
2023-01-17T13:31:50.874Z,78.67
2023-01-17T13:37:23.236Z,77.69
2023-01-17T13:42:42.495Z,77.67
2023-01-17T13:47:45.495Z,77.49
2023-01-17T13:52:50.797Z,77.41
2023-01-17T13:57:53.196Z,77.51
2023-01-17T14:02:55.676Z,77.71
2023-01-17T14:08:02.236Z,77.02
2023-01-17T14:13:06.870Z,76.78
2023-01-17T14:18:34.066Z,77.46
2023-01-17T14:24:15.978Z,77.63
2023-01-17T14:29:58.975Z,78.70
2023-01-17T14:35:02.273Z,78.82
2023-01-17T14:40:18.223Z,79.63
2023-01-17T14:45:26.851Z,80.00
2023-01-17T14:50:35.974Z,80.04
2023-01-17T14:55:39.080Z,79.67
2023-01-17T15:00:45.175Z,79.50
2023-01-17T15:05:52.250Z,79.62
2023-01-17T15:11:05.445Z,79.78
2023-01-17T15:16:24.406Z,80.25
2023-01-17T15:21:29.720Z,80.64
2023-01-17T15:26:34.767Z,81.15
2023-01-17T15:31:48.108Z,81.77
2023-01-17T15:36:51.166Z,81.99
2023-01-17T15:41:59.332Z,82.53
2023-01-17T15:47:02.496Z,82.96
2023-01-17T15:52:10.324Z,83.43
2023-01-17T15:57:24.765Z,83.78
2023-01-17T16:02:29.633Z,84.22
2023-01-17T16:07:36.207Z,84.49
2023-01-17T16:12:39.298Z,84.79
2023-01-17T16:17:48.052Z,84.87
2023-01-17T16:22:50.861Z,85.02
2023-01-17T16:27:53.284Z,85.32
2023-01-17T16:33:00.066Z,85.66
2023-01-17T16:38:15.532Z,86.04
2023-01-17T16:43:18.931Z,86.46
2023-01-17T16:48:21.960Z,86.96
2023-01-17T16:53:26.976Z,87.17
2023-01-17T16:58:28.826Z,87.45
2023-01-17T17:03:30.906Z,87.65
2023-01-17T17:08:37.106Z,87.51
2023-01-17T17:13:40.672Z,87.54
2023-01-17T17:18:44.883Z,87.63
2023-01-17T17:23:50.911Z,87.70
2023-01-17T17:28:54.152Z,87.87
2023-01-17T17:34:00.929Z,87.90
2023-01-17T17:39:04.790Z,87.96
2023-01-17T17:44:06.782Z,88.01
2023-01-17T17:49:09.199Z,88.12
2023-01-17T17:54:13.280Z,88.25
2023-01-17T17:59:18.497Z,88.22
2023-01-17T18:04:21.714Z,88.19
2023-01-17T18:09:24.273Z,88.34
2023-01-17T18:14:26.710Z,88.32
2023-01-17T18:19:28.812Z,88.30
2023-01-17T18:24:31.114Z,88.37
2023-01-17T18:29:33.253Z,88.65
2023-01-17T18:34:35.846Z,88.77
2023-01-17T18:39:37.871Z,88.54
2023-01-17T18:44:39.968Z,88.59
2023-01-17T18:49:43.047Z,88.94
2023-01-17T18:54:46.131Z,88.91
2023-01-17T18:59:48.283Z,89.15
2023-01-17T19:04:50.095Z,89.16
2023-01-17T19:09:51.958Z,89.34
2023-01-17T19:14:53.860Z,89.48
2023-01-17T19:19:57.115Z,89.62
2023-01-17T19:24:59.016Z,89.56
2023-01-17T19:30:01.566Z,89.40
2023-01-17T19:35:03.623Z,89.43
2023-01-17T19:40:08.406Z,89.26
2023-01-17T19:45:14.101Z,89.48
2023-01-17T19:50:18.698Z,89.61
2023-01-17T19:55:25.648Z,89.71
2023-01-17T20:00:30.372Z,89.63
2023-01-17T20:05:34.242Z,89.85
2023-01-17T20:10:36.042Z,89.95
2023-01-17T20:15:37.843Z,89.94
2023-01-17T20:20:56.314Z,89.94
2023-01-17T20:25:59.221Z,90.12
2023-01-17T20:31:10.309Z,90.15
2023-01-17T20:36:16.094Z,90.34
2023-01-17T20:41:25.714Z,90.40
2023-01-17T20:46:33.215Z,90.64
2023-01-17T20:51:37.685Z,90.74
2023-01-17T20:56:39.473Z,90.76
2023-01-17T21:01:43.790Z,90.94
2023-01-17T21:06:46.276Z,91.09
2023-01-17T21:11:48.939Z,91.21
2023-01-17T21:16:50.884Z,91.19
2023-01-17T21:21:53.083Z,91.24
2023-01-17T21:26:55.140Z,91.20
2023-01-17T21:31:57.400Z,91.10
2023-01-17T21:36:59.366Z,90.96
2023-01-17T21:42:01.420Z,90.98
2023-01-17T21:47:03.772Z,91.07
2023-01-17T21:52:05.630Z,91.20
2023-01-17T21:57:26.563Z,91.05
2023-01-17T22:02:28.451Z,91.03
2023-01-17T22:07:30.959Z,91.00
2023-01-17T22:12:33.152Z,91.05
2023-01-17T22:17:38.312Z,91.06
2023-01-17T22:22:40.259Z,91.20
2023-01-17T22:27:42.074Z,91.18
2023-01-17T22:32:43.919Z,90.96
2023-01-17T22:37:45.835Z,90.85
2023-01-17T22:42:48.131Z,91.07
2023-01-17T22:47:50.299Z,90.83
2023-01-17T22:52:52.137Z,90.92
2023-01-17T22:57:54.669Z,90.80
2023-01-17T23:02:56.914Z,90.63
2023-01-17T23:08:02.075Z,90.80
2023-01-17T23:13:04.303Z,90.51
2023-01-17T23:18:24.824Z,90.41
2023-01-17T23:23:26.940Z,90.42
2023-01-17T23:28:28.938Z,90.28
2023-01-17T23:33:31.025Z,90.34
2023-01-17T23:38:37.937Z,90.13
2023-01-17T23:43:40.182Z,90.27
2023-01-17T23:48:41.914Z,90.32
2023-01-17T23:53:43.830Z,90.48
2023-01-17T23:58:45.700Z,90.70
